sensor_id;sensor_type;location;lat;lon;timestamp;pressure;altitude;pressure_sealevel;temperature;humidity
80644;BME280;70010;60.224;24.712;2023-06-14T00:00:41;101929.75;;;10.24;41.40
80644;BME280;70010;60.224;24.712;2023-06-14T00:03:07;101932.37;;;9.96;42.85
80644;BME280;70010;60.224;24.712;2023-06-14T00:05:32;101931.62;;;10.24;42.09
80644;BME280;70010;60.224;24.712;2023-06-14T00:07:58;101930.44;;;10.44;41.81
80644;BME280;70010;60.224;24.712;2023-06-14T00:10:23;101932.12;;;10.06;42.91
80644;BME280;70010;60.224;24.712;2023-06-14T00:12:48;101934.44;;;10.23;42.94
80644;BME280;70010;60.224;24.712;2023-06-14T00:15:13;101934.67;;;10.05;43.19
80644;BME280;70010;60.224;24.712;2023-06-14T00:17:39;101936.51;;;9.80;43.70
80644;BME280;70010;60.224;24.712;2023-06-14T00:20:05;101936.13;;;10.03;43.38
80644;BME280;70010;60.224;24.712;2023-06-14T00:22:29;101934.47;;;10.11;42.90
80644;BME280;70010;60.224;24.712;2023-06-14T00:24:55;101933.12;;;9.62;43.71
80644;BME280;70010;60.224;24.712;2023-06-14T00:27:20;101934.61;;;9.84;44.68
80644;BME280;70010;60.224;24.712;2023-06-14T00:29:45;101932.11;;;11.23;41.30
80644;BME280;70010;60.224;24.712;2023-06-14T00:32:11;101932.08;;;11.30;40.14
80644;BME280;70010;60.224;24.712;2023-06-14T00:34:36;101930.81;;;11.87;39.30
80644;BME280;70010;60.224;24.712;2023-06-14T00:37:01;101924.60;;;14.07;35.29
80644;BME280;70010;60.224;24.712;2023-06-14T00:39:27;101933.66;;;10.60;41.32
80644;BME280;70010;60.224;24.712;2023-06-14T00:41:53;101932.49;;;10.54;41.98
80644;BME280;70010;60.224;24.712;2023-06-14T00:44:18;101931.86;;;10.17;42.62
80644;BME280;70010;60.224;24.712;2023-06-14T00:46:45;101930.53;;;9.52;44.66
80644;BME280;70010;60.224;24.712;2023-06-14T00:49:09;101930.07;;;9.39;45.81
80644;BME280;70010;60.224;24.712;2023-06-14T00:51:34;101926.30;;;9.89;44.34
80644;BME280;70010;60.224;24.712;2023-06-14T00:53:59;101927.16;;;9.44;45.71
80644;BME280;70010;60.224;24.712;2023-06-14T00:56:25;101928.11;;;9.07;46.07
80644;BME280;70010;60.224;24.712;2023-06-14T00:58:50;101931.07;;;9.78;44.60
80644;BME280;70010;60.224;24.712;2023-06-14T01:01:15;101933.24;;;9.62;44.77
80644;BME280;70010;60.224;24.712;2023-06-14T01:03:40;101930.82;;;9.72;44.58
80644;BME280;70010;60.224;24.712;2023-06-14T01:06:13;101928.52;;;9.14;45.64
80644;BME280;70010;60.224;24.712;2023-06-14T01:08:39;101931.09;;;9.06;46.68
80644;BME280;70010;60.224;24.712;2023-06-14T01:11:01;101935.26;;;8.44;46.85
80644;BME280;70010;60.224;24.712;2023-06-14T01:13:27;101935.07;;;9.17;45.53
80644;BME280;70010;60.224;24.712;2023-06-14T01:15:47;101936.08;;;9.28;46.13
80644;BME280;70010;60.224;24.712;2023-06-14T01:18:12;101937.34;;;9.07;46.92
80644;BME280;70010;60.224;24.712;2023-06-14T01:20:38;101937.89;;;8.97;47.19
80644;BME280;70010;60.224;24.712;2023-06-14T01:23:03;101935.28;;;9.43;45.53
80644;BME280;70010;60.224;24.712;2023-06-14T01:25:28;101932.83;;;9.18;45.96
80644;BME280;70010;60.224;24.712;2023-06-14T01:27:57;101932.04;;;8.78;47.27
80644;BME280;70010;60.224;24.712;2023-06-14T01:30:20;101932.71;;;9.08;47.35
80644;BME280;70010;60.224;24.712;2023-06-14T01:32:46;101932.01;;;8.98;47.44
80644;BME280;70010;60.224;24.712;2023-06-14T01:35:10;101931.92;;;8.77;47.49
80644;BME280;70010;60.224;24.712;2023-06-14T01:37:36;101931.81;;;8.72;48.23
80644;BME280;70010;60.224;24.712;2023-06-14T01:40:02;101932.98;;;9.19;46.62
80644;BME280;70010;60.224;24.712;2023-06-14T01:42:26;101931.42;;;8.63;48.09
80644;BME280;70010;60.224;24.712;2023-06-14T01:44:53;101931.67;;;8.56;48.26
80644;BME280;70010;60.224;24.712;2023-06-14T01:47:17;101931.55;;;8.92;48.14
80644;BME280;70010;60.224;24.712;2023-06-14T01:49:43;101932.33;;;8.96;48.12
80644;BME280;70010;60.224;24.712;2023-06-14T01:52:08;101930.21;;;8.74;49.02
80644;BME280;70010;60.224;24.712;2023-06-14T01:54:33;101935.65;;;8.85;48.17
80644;BME280;70010;60.224;24.712;2023-06-14T01:56:59;101935.36;;;8.66;48.52
80644;BME280;70010;60.224;24.712;2023-06-14T01:59:24;101938.59;;;9.03;48.38
80644;BME280;70010;60.224;24.712;2023-06-14T02:01:49;101939.30;;;9.24;47.42
80644;BME280;70010;60.224;24.712;2023-06-14T02:04:14;101939.65;;;8.82;47.96
80644;BME280;70010;60.224;24.712;2023-06-14T02:06:39;101939.44;;;8.92;48.42
80644;BME280;70010;60.224;24.712;2023-06-14T02:09:04;101937.78;;;8.94;48.50
80644;BME280;70010;60.224;24.712;2023-06-14T02:11:30;101938.85;;;9.00;47.56
80644;BME280;70010;60.224;24.712;2023-06-14T02:13:56;101936.40;;;8.91;47.68
80644;BME280;70010;60.224;24.712;2023-06-14T02:16:21;101935.22;;;9.39;46.47
80644;BME280;70010;60.224;24.712;2023-06-14T02:18:46;101938.05;;;9.72;46.34
80644;BME280;70010;60.224;24.712;2023-06-14T02:21:11;101941.45;;;9.05;47.45
80644;BME280;70010;60.224;24.712;2023-06-14T02:23:36;101941.76;;;9.29;47.26
80644;BME280;70010;60.224;24.712;2023-06-14T02:26:02;101942.89;;;9.81;46.48
80644;BME280;70010;60.224;24.712;2023-06-14T02:28:27;101943.73;;;9.04;47.91
80644;BME280;70010;60.224;24.712;2023-06-14T02:30:52;101940.22;;;9.26;48.02
80644;BME280;70010;60.224;24.712;2023-06-14T02:33:17;101938.41;;;9.68;46.96
80644;BME280;70010;60.224;24.712;2023-06-14T02:35:43;101934.22;;;9.41;48.05
80644;BME280;70010;60.224;24.712;2023-06-14T02:38:09;101932.27;;;9.77;47.54
80644;BME280;70010;60.224;24.712;2023-06-14T02:40:34;101933.22;;;9.11;47.75
80644;BME280;70010;60.224;24.712;2023-06-14T02:42:59;101930.32;;;10.34;46.15
80644;BME280;70010;60.224;24.712;2023-06-14T02:45:24;101933.66;;;10.06;46.87
80644;BME280;70010;60.224;24.712;2023-06-14T02:47:49;101934.99;;;9.96;46.89
80644;BME280;70010;60.224;24.712;2023-06-14T02:50:14;101936.97;;;9.97;47.06
80644;BME280;70010;60.224;24.712;2023-06-14T02:52:40;101939.65;;;9.57;48.06
80644;BME280;70010;60.224;24.712;2023-06-14T02:55:07;101941.89;;;9.83;47.41
80644;BME280;70010;60.224;24.712;2023-06-14T02:57:32;101941.90;;;9.89;47.13
80644;BME280;70010;60.224;24.712;2023-06-14T02:59:57;101940.75;;;10.29;46.79
80644;BME280;70010;60.224;24.712;2023-06-14T03:02:22;101938.09;;;10.65;45.26
80644;BME280;70010;60.224;24.712;2023-06-14T03:04:48;101941.86;;;10.24;46.65
80644;BME280;70010;60.224;24.712;2023-06-14T03:07:14;101937.48;;;12.33;41.45
80644;BME280;70010;60.224;24.712;2023-06-14T03:09:39;101948.16;;;10.68;44.80
80644;BME280;70010;60.224;24.712;2023-06-14T03:12:05;101946.49;;;10.55;45.55
80644;BME280;70010;60.224;24.712;2023-06-14T03:14:30;101950.87;;;11.91;42.88
80644;BME280;70010;60.224;24.712;2023-06-14T03:16:55;101951.97;;;11.73;42.81
80644;BME280;70010;60.224;24.712;2023-06-14T03:19:20;101955.74;;;12.03;42.20
80644;BME280;70010;60.224;24.712;2023-06-14T03:21:45;101957.66;;;11.88;42.30
80644;BME280;70010;60.224;24.712;2023-06-14T03:24:11;101953.56;;;13.91;38.38
80644;BME280;70010;60.224;24.712;2023-06-14T03:26:36;101953.82;;;14.73;37.04
80644;BME280;70010;60.224;24.712;2023-06-14T03:29:02;101963.18;;;11.86;41.16
80644;BME280;70010;60.224;24.712;2023-06-14T03:31:29;101964.36;;;12.09;41.50
80644;BME280;70010;60.224;24.712;2023-06-14T03:33:52;101967.36;;;11.70;42.07
80644;BME280;70010;60.224;24.712;2023-06-14T03:36:18;101959.27;;;13.75;38.23
80644;BME280;70010;60.224;24.712;2023-06-14T03:38:43;101964.40;;;12.02;41.73
80644;BME280;70010;60.224;24.712;2023-06-14T03:41:08;101966.43;;;11.42;43.38
80644;BME280;70010;60.224;24.712;2023-06-14T03:43:34;101969.22;;;11.53;43.23
80644;BME280;70010;60.224;24.712;2023-06-14T03:45:59;101970.84;;;11.34;44.11
80644;BME280;70010;60.224;24.712;2023-06-14T03:48:24;101970.50;;;11.24;44.28
80644;BME280;70010;60.224;24.712;2023-06-14T03:50:50;101971.81;;;11.51;43.98
80644;BME280;70010;60.224;24.712;2023-06-14T03:53:15;101970.14;;;12.15;42.78
80644;BME280;70010;60.224;24.712;2023-06-14T03:55:41;101967.42;;;13.39;40.50
80644;BME280;70010;60.224;24.712;2023-06-14T03:58:06;101969.89;;;12.29;42.09
80644;BME280;70010;60.224;24.712;2023-06-14T04:00:32;101967.65;;;12.72;41.47
80644;BME280;70010;60.224;24.712;2023-06-14T04:02:57;101969.63;;;12.07;42.95
80644;BME280;70010;60.224;24.712;2023-06-14T04:05:24;101969.90;;;12.36;42.81
80644;BME280;70010;60.224;24.712;2023-06-14T04:07:48;101969.71;;;12.16;43.48
80644;BME280;70010;60.224;24.712;2023-06-14T04:10:15;101972.35;;;11.94;43.89
80644;BME280;70010;60.224;24.712;2023-06-14T04:12:40;101974.50;;;12.30;44.07
80644;BME280;70010;60.224;24.712;2023-06-14T04:15:06;101974.39;;;12.41;44.37
80644;BME280;70010;60.224;24.712;2023-06-14T04:17:30;101975.48;;;12.56;44.01
80644;BME280;70010;60.224;24.712;2023-06-14T04:19:55;101974.56;;;13.04;42.67
80644;BME280;70010;60.224;24.712;2023-06-14T04:22:21;101976.64;;;13.01;43.21
80644;BME280;70010;60.224;24.712;2023-06-14T04:24:46;101976.68;;;12.86;43.67
80644;BME280;70010;60.224;24.712;2023-06-14T04:27:11;101979.18;;;12.55;44.99
80644;BME280;70010;60.224;24.712;2023-06-14T04:29:37;101979.41;;;13.47;43.44
80644;BME280;70010;60.224;24.712;2023-06-14T04:32:02;101981.84;;;13.59;43.58
80644;BME280;70010;60.224;24.712;2023-06-14T04:34:28;101981.31;;;13.94;42.06
80644;BME280;70010;60.224;24.712;2023-06-14T04:36:53;101977.07;;;14.27;41.27
80644;BME280;70010;60.224;24.712;2023-06-14T04:39:18;101978.13;;;14.05;41.66
80644;BME280;70010;60.224;24.712;2023-06-14T04:41:43;101980.49;;;13.93;42.21
80644;BME280;70010;60.224;24.712;2023-06-14T04:44:09;101978.08;;;15.39;39.74
80644;BME280;70010;60.224;24.712;2023-06-14T04:46:34;101976.43;;;14.97;40.63
80644;BME280;70010;60.224;24.712;2023-06-14T04:49:00;101975.64;;;15.86;38.72
80644;BME280;70010;60.224;24.712;2023-06-14T04:51:25;101977.18;;;13.87;42.65
80644;BME280;70010;60.224;24.712;2023-06-14T04:53:50;101975.64;;;15.11;40.11
80644;BME280;70010;60.224;24.712;2023-06-14T04:56:16;101975.06;;;13.78;43.27
80644;BME280;70010;60.224;24.712;2023-06-14T04:58:41;101969.79;;;14.51;42.57
80644;BME280;70010;60.224;24.712;2023-06-14T05:01:07;101972.24;;;13.96;43.04
80644;BME280;70010;60.224;24.712;2023-06-14T05:03:33;101970.29;;;14.28;42.60
80644;BME280;70010;60.224;24.712;2023-06-14T05:05:58;101973.56;;;14.20;43.22
80644;BME280;70010;60.224;24.712;2023-06-14T05:08:23;101971.92;;;14.36;43.02
80644;BME280;70010;60.224;24.712;2023-06-14T05:10:49;101963.50;;;17.37;37.03
80644;BME280;70010;60.224;24.712;2023-06-14T05:13:14;101969.87;;;14.90;41.17
80644;BME280;70010;60.224;24.712;2023-06-14T05:15:39;101976.12;;;15.51;40.77
80644;BME280;70010;60.224;24.712;2023-06-14T05:18:04;101971.36;;;17.38;37.31
80644;BME280;70010;60.224;24.712;2023-06-14T05:20:30;101968.62;;;16.52;37.82
80644;BME280;70010;60.224;24.712;2023-06-14T05:22:56;101971.29;;;15.66;39.27
80644;BME280;70010;60.224;24.712;2023-06-14T05:25:22;101967.38;;;14.86;40.80
80644;BME280;70010;60.224;24.712;2023-06-14T05:27:48;101971.52;;;15.55;39.57
80644;BME280;70010;60.224;24.712;2023-06-14T05:30:13;101973.99;;;15.47;40.40
80644;BME280;70010;60.224;24.712;2023-06-14T05:32:38;101972.38;;;15.79;39.35
80644;BME280;70010;60.224;24.712;2023-06-14T05:35:05;101975.21;;;15.12;41.38
80644;BME280;70010;60.224;24.712;2023-06-14T05:37:29;101976.39;;;15.78;39.60
80644;BME280;70010;60.224;24.712;2023-06-14T05:39:55;101976.19;;;15.44;39.73
80644;BME280;70010;60.224;24.712;2023-06-14T05:42:20;101973.64;;;15.34;40.79
80644;BME280;70010;60.224;24.712;2023-06-14T05:44:46;101970.53;;;15.05;41.12
80644;BME280;70010;60.224;24.712;2023-06-14T05:47:12;101967.30;;;14.77;41.33
80644;BME280;70010;60.224;24.712;2023-06-14T05:49:38;101968.56;;;15.34;40.87
80644;BME280;70010;60.224;24.712;2023-06-14T05:52:04;101968.46;;;16.07;39.09
80644;BME280;70010;60.224;24.712;2023-06-14T05:54:28;101965.71;;;16.48;38.07
80644;BME280;70010;60.224;24.712;2023-06-14T05:56:54;101965.02;;;16.45;38.20
80644;BME280;70010;60.224;24.712;2023-06-14T05:59:19;101970.59;;;16.33;38.70
80644;BME280;70010;60.224;24.712;2023-06-14T06:01:44;101965.82;;;17.30;36.25
80644;BME280;70010;60.224;24.712;2023-06-14T06:04:10;101972.44;;;16.05;38.48
80644;BME280;70010;60.224;24.712;2023-06-14T06:06:35;101974.57;;;15.65;40.29
80644;BME280;70010;60.224;24.712;2023-06-14T06:09:01;101975.28;;;15.76;40.29
80644;BME280;70010;60.224;24.712;2023-06-14T06:11:26;101971.65;;;15.79;39.55
80644;BME280;70010;60.224;24.712;2023-06-14T06:13:51;101969.17;;;16.96;37.39
80644;BME280;70010;60.224;24.712;2023-06-14T06:16:17;101967.98;;;16.62;37.81
80644;BME280;70010;60.224;24.712;2023-06-14T06:18:42;101965.65;;;17.64;36.33
80644;BME280;70010;60.224;24.712;2023-06-14T06:21:07;101967.28;;;17.52;35.85
80644;BME280;70010;60.224;24.712;2023-06-14T06:23:33;101967.18;;;17.60;36.43
80644;BME280;70010;60.224;24.712;2023-06-14T06:25:58;101969.38;;;16.58;37.94
80644;BME280;70010;60.224;24.712;2023-06-14T06:28:23;101963.45;;;19.72;33.25
80644;BME280;70010;60.224;24.712;2023-06-14T06:30:49;101962.16;;;19.19;33.14
80644;BME280;70010;60.224;24.712;2023-06-14T06:33:14;101967.69;;;17.15;37.18
80644;BME280;70010;60.224;24.712;2023-06-14T06:35:39;101964.43;;;17.66;35.43
80644;BME280;70010;60.224;24.712;2023-06-14T06:38:05;101966.12;;;17.99;35.00
80644;BME280;70010;60.224;24.712;2023-06-14T06:40:31;101966.49;;;20.40;32.09
80644;BME280;70010;60.224;24.712;2023-06-14T06:42:56;101967.21;;;20.95;29.87
80644;BME280;70010;60.224;24.712;2023-06-14T06:45:22;101967.19;;;21.03;29.69
80644;BME280;70010;60.224;24.712;2023-06-14T06:47:47;101970.20;;;20.28;30.22
80644;BME280;70010;60.224;24.712;2023-06-14T06:50:12;101964.51;;;19.09;32.09
80644;BME280;70010;60.224;24.712;2023-06-14T06:52:38;101968.77;;;21.34;29.22
80644;BME280;70010;60.224;24.712;2023-06-14T06:55:04;101969.50;;;21.49;28.86
80644;BME280;70010;60.224;24.712;2023-06-14T06:57:28;101972.24;;;18.95;31.86
80644;BME280;70010;60.224;24.712;2023-06-14T06:59:54;101973.56;;;20.60;30.64
80644;BME280;70010;60.224;24.712;2023-06-14T07:02:19;101972.13;;;21.60;28.67
80644;BME280;70010;60.224;24.712;2023-06-14T07:04:45;101972.21;;;21.75;28.47
80644;BME280;70010;60.224;24.712;2023-06-14T07:07:11;101975.60;;;20.98;29.05
80644;BME280;70010;60.224;24.712;2023-06-14T07:09:36;101981.58;;;20.72;29.66
80644;BME280;70010;60.224;24.712;2023-06-14T07:12:02;101983.63;;;20.60;30.05
80644;BME280;70010;60.224;24.712;2023-06-14T07:14:27;101984.11;;;18.78;31.84
80644;BME280;70010;60.224;24.712;2023-06-14T07:16:53;101980.59;;;21.55;28.44
80644;BME280;70010;60.224;24.712;2023-06-14T07:19:18;101984.91;;;20.69;28.59
80644;BME280;70010;60.224;24.712;2023-06-14T07:21:44;101983.84;;;17.95;34.22
80644;BME280;70010;60.224;24.712;2023-06-14T07:24:09;101986.80;;;17.76;34.11
80644;BME280;70010;60.224;24.712;2023-06-14T07:26:35;101984.28;;;19.55;31.79
80644;BME280;70010;60.224;24.712;2023-06-14T07:29:01;101986.42;;;20.91;29.64
80644;BME280;70010;60.224;24.712;2023-06-14T07:31:26;101983.37;;;19.86;30.38
80644;BME280;70010;60.224;24.712;2023-06-14T07:33:52;101979.12;;;22.76;27.19
80644;BME280;70010;60.224;24.712;2023-06-14T07:36:17;101975.29;;;23.63;26.21
80644;BME280;70010;60.224;24.712;2023-06-14T07:38:42;101984.83;;;19.36;31.16
80644;BME280;70010;60.224;24.712;2023-06-14T07:41:08;101984.04;;;20.95;29.52
80644;BME280;70010;60.224;24.712;2023-06-14T07:43:33;101983.01;;;19.45;32.01
80644;BME280;70010;60.224;24.712;2023-06-14T07:45:59;101983.83;;;20.66;30.18
80644;BME280;70010;60.224;24.712;2023-06-14T07:48:24;101979.46;;;22.76;27.40
80644;BME280;70010;60.224;24.712;2023-06-14T07:50:50;101981.57;;;22.94;26.89
80644;BME280;70010;60.224;24.712;2023-06-14T07:53:15;101984.12;;;22.80;26.97
80644;BME280;70010;60.224;24.712;2023-06-14T07:55:40;101984.36;;;22.80;26.71
80644;BME280;70010;60.224;24.712;2023-06-14T07:58:06;101988.20;;;22.25;27.43
80644;BME280;70010;60.224;24.712;2023-06-14T08:00:31;101993.67;;;19.45;31.22
80644;BME280;70010;60.224;24.712;2023-06-14T08:02:57;101988.17;;;19.76;30.63
80644;BME280;70010;60.224;24.712;2023-06-14T08:05:22;101984.30;;;21.55;28.53
80644;BME280;70010;60.224;24.712;2023-06-14T08:07:48;101982.67;;;21.63;28.11
80644;BME280;70010;60.224;24.712;2023-06-14T08:10:13;101984.08;;;22.93;26.97
80644;BME280;70010;60.224;24.712;2023-06-14T08:12:39;101981.22;;;21.89;28.06
80644;BME280;70010;60.224;24.712;2023-06-14T08:15:05;101988.78;;;20.25;30.14
80644;BME280;70010;60.224;24.712;2023-06-14T08:17:29;101982.54;;;22.72;27.06
80644;BME280;70010;60.224;24.712;2023-06-14T08:19:55;101991.44;;;20.83;28.76
80644;BME280;70010;60.224;24.712;2023-06-14T08:22:21;101980.39;;;22.03;27.66
80644;BME280;70010;60.224;24.712;2023-06-14T08:24:46;101990.26;;;20.76;28.43
80644;BME280;70010;60.224;24.712;2023-06-14T08:27:12;101988.35;;;21.13;28.99
80644;BME280;70010;60.224;24.712;2023-06-14T08:29:37;101982.90;;;22.16;27.29
80644;BME280;70010;60.224;24.712;2023-06-14T08:32:03;101987.33;;;21.38;28.12
80644;BME280;70010;60.224;24.712;2023-06-14T08:34:28;101984.78;;;23.17;26.41
80644;BME280;70010;60.224;24.712;2023-06-14T08:36:54;101987.90;;;21.66;28.09
80644;BME280;70010;60.224;24.712;2023-06-14T08:39:19;101982.34;;;23.12;26.42
80644;BME280;70010;60.224;24.712;2023-06-14T08:41:46;101977.76;;;21.96;27.93
80644;BME280;70010;60.224;24.712;2023-06-14T08:44:11;101978.85;;;23.59;25.40
80644;BME280;70010;60.224;24.712;2023-06-14T08:46:37;101979.89;;;23.64;24.89
80644;BME280;70010;60.224;24.712;2023-06-14T08:49:02;101986.28;;;21.28;28.25
80644;BME280;70010;60.224;24.712;2023-06-14T08:51:28;101984.06;;;24.29;24.85
80644;BME280;70010;60.224;24.712;2023-06-14T08:53:54;101983.87;;;24.27;24.59
80644;BME280;70010;60.224;24.712;2023-06-14T08:56:18;101985.45;;;26.59;22.06
80644;BME280;70010;60.224;24.712;2023-06-14T08:58:44;101989.30;;;24.67;22.93
80644;BME280;70010;60.224;24.712;2023-06-14T09:01:09;101987.66;;;22.45;26.62
80644;BME280;70010;60.224;24.712;2023-06-14T09:03:34;101985.49;;;24.14;24.22
80644;BME280;70010;60.224;24.712;2023-06-14T09:06:00;101987.28;;;24.80;23.70
80644;BME280;70010;60.224;24.712;2023-06-14T09:08:26;101990.65;;;24.96;23.74
80644;BME280;70010;60.224;24.712;2023-06-14T09:10:51;101986.81;;;24.00;24.53
80644;BME280;70010;60.224;24.712;2023-06-14T09:13:17;101989.82;;;24.95;23.75
80644;BME280;70010;60.224;24.712;2023-06-14T09:15:41;101989.30;;;24.90;23.79
80644;BME280;70010;60.224;24.712;2023-06-14T09:18:06;101985.33;;;25.78;22.35
80644;BME280;70010;60.224;24.712;2023-06-14T09:20:33;101981.59;;;24.78;23.71
80644;BME280;70010;60.224;24.712;2023-06-14T09:22:58;101980.54;;;23.85;25.09
80644;BME280;70010;60.224;24.712;2023-06-14T09:25:23;101982.87;;;25.83;23.53
80644;BME280;70010;60.224;24.712;2023-06-14T09:27:48;101979.20;;;26.38;22.34
80644;BME280;70010;60.224;24.712;2023-06-14T09:30:13;101978.41;;;24.11;25.12
80644;BME280;70010;60.224;24.712;2023-06-14T09:32:40;101980.53;;;23.61;25.42
80644;BME280;70010;60.224;24.712;2023-06-14T09:35:05;101979.85;;;25.40;23.31
80644;BME280;70010;60.224;24.712;2023-06-14T09:37:31;101976.15;;;24.14;24.50
80644;BME280;70010;60.224;24.712;2023-06-14T09:42:20;101976.31;;;24.21;24.04
80644;BME280;70010;60.224;24.712;2023-06-14T09:44:47;101975.93;;;23.17;24.67
80644;BME280;70010;60.224;24.712;2023-06-14T09:47:11;101974.12;;;25.53;22.30
80644;BME280;70010;60.224;24.712;2023-06-14T09:49:36;101971.85;;;23.23;24.36
80644;BME280;70010;60.224;24.712;2023-06-14T09:52:03;101973.77;;;26.20;21.64
80644;BME280;70010;60.224;24.712;2023-06-14T09:54:28;101970.32;;;23.99;23.29
80644;BME280;70010;60.224;24.712;2023-06-14T09:56:52;101968.64;;;25.96;21.50
80644;BME280;70010;60.224;24.712;2023-06-14T09:59:21;101961.02;;;27.50;19.77
80644;BME280;70010;60.224;24.712;2023-06-14T10:01:43;101966.39;;;25.66;21.34
80644;BME280;70010;60.224;24.712;2023-06-14T10:04:09;101959.20;;;27.25;19.80
80644;BME280;70010;60.224;24.712;2023-06-14T10:06:37;101957.69;;;24.51;22.41
80644;BME280;70010;60.224;24.712;2023-06-14T10:09:00;101954.06;;;27.48;20.00
80644;BME280;70010;60.224;24.712;2023-06-14T10:11:26;101954.74;;;25.79;20.67
80644;BME280;70010;60.224;24.712;2023-06-14T10:13:50;101961.20;;;25.28;21.22
80644;BME280;70010;60.224;24.712;2023-06-14T10:16:19;101958.86;;;24.91;21.89
80644;BME280;70010;60.224;24.712;2023-06-14T10:18:47;101957.88;;;25.96;20.73
80644;BME280;70010;60.224;24.712;2023-06-14T10:21:16;101951.58;;;26.42;20.44
80644;BME280;70010;60.224;24.712;2023-06-14T10:23:37;101949.03;;;26.71;20.01
80644;BME280;70010;60.224;24.712;2023-06-14T10:25:58;101954.41;;;25.02;21.12
80644;BME280;70010;60.224;24.712;2023-06-14T10:28:23;101954.40;;;25.40;21.30
80644;BME280;70010;60.224;24.712;2023-06-14T10:33:15;101949.51;;;24.62;22.04
80644;BME280;70010;60.224;24.712;2023-06-14T10:35:39;101948.56;;;23.98;21.95
80644;BME280;70010;60.224;24.712;2023-06-14T10:38:07;101950.90;;;24.85;20.68
80644;BME280;70010;60.224;24.712;2023-06-14T10:40:31;101949.23;;;25.28;20.94
80644;BME280;70010;60.224;24.712;2023-06-14T10:42:55;101950.67;;;25.61;20.82
80644;BME280;70010;60.224;24.712;2023-06-14T10:45:20;101945.55;;;25.44;19.10
80644;BME280;70010;60.224;24.712;2023-06-14T10:47:49;101939.79;;;27.30;17.39
80644;BME280;70010;60.224;24.712;2023-06-14T10:50:12;101938.07;;;26.28;18.36
80644;BME280;70010;60.224;24.712;2023-06-14T10:52:39;101937.83;;;24.29;19.92
80644;BME280;70010;60.224;24.712;2023-06-14T10:55:08;101937.22;;;24.45;20.14
80644;BME280;70010;60.224;24.712;2023-06-14T10:57:28;101935.31;;;24.81;19.72
80644;BME280;70010;60.224;24.712;2023-06-14T10:59:54;101940.03;;;25.80;18.30
80644;BME280;70010;60.224;24.712;2023-06-14T11:02:34;101939.89;;;25.87;18.15
80644;BME280;70010;60.224;24.712;2023-06-14T11:04:48;101932.17;;;24.66;19.27
80644;BME280;70010;60.224;24.712;2023-06-14T11:07:20;101931.00;;;25.76;18.87
80644;BME280;70010;60.224;24.712;2023-06-14T11:09:50;101923.22;;;28.42;16.38
80644;BME280;70010;60.224;24.712;2023-06-14T11:12:02;101928.34;;;25.81;17.92
80644;BME280;70010;60.224;24.712;2023-06-14T11:14:26;101927.53;;;26.37;17.65
80644;BME280;70010;60.224;24.712;2023-06-14T11:16:51;101926.32;;;28.04;16.10
80644;BME280;70010;60.224;24.712;2023-06-14T11:19:16;101924.73;;;27.57;16.57
80644;BME280;70010;60.224;24.712;2023-06-14T11:21:41;101921.30;;;29.82;15.08
80644;BME280;70010;60.224;24.712;2023-06-14T11:24:10;101913.53;;;31.84;13.57
80644;BME280;70010;60.224;24.712;2023-06-14T11:26:32;101916.93;;;27.12;16.61
80644;BME280;70010;60.224;24.712;2023-06-14T11:28:58;101911.81;;;27.71;16.91
80644;BME280;70010;60.224;24.712;2023-06-14T11:31:23;101915.55;;;26.31;17.89
80644;BME280;70010;60.224;24.712;2023-06-14T11:33:50;101912.72;;;29.37;15.93
80644;BME280;70010;60.224;24.712;2023-06-14T11:36:13;101907.07;;;30.60;14.41
80644;BME280;70010;60.224;24.712;2023-06-14T11:38:39;101903.59;;;27.62;16.56
80644;BME280;70010;60.224;24.712;2023-06-14T11:41:04;101908.04;;;27.00;17.33
80644;BME280;70010;60.224;24.712;2023-06-14T11:43:29;101904.23;;;28.74;16.42
80644;BME280;70010;60.224;24.712;2023-06-14T11:45:54;101903.02;;;28.36;16.31
80644;BME280;70010;60.224;24.712;2023-06-14T11:48:20;101904.84;;;31.13;14.38
80644;BME280;70010;60.224;24.712;2023-06-14T11:50:50;101904.58;;;28.36;16.19
80644;BME280;70010;60.224;24.712;2023-06-14T11:53:10;101896.98;;;28.88;15.96
80644;BME280;70010;60.224;24.712;2023-06-14T11:55:36;101897.99;;;28.40;15.97
80644;BME280;70010;60.224;24.712;2023-06-14T11:58:01;101890.55;;;27.00;17.30
80644;BME280;70010;60.224;24.712;2023-06-14T12:00:26;101887.89;;;26.88;17.81
80644;BME280;70010;60.224;24.712;2023-06-14T12:02:53;101883.25;;;29.78;15.47
80644;BME280;70010;60.224;24.712;2023-06-14T12:05:21;101885.64;;;29.95;15.20
80644;BME280;70010;60.224;24.712;2023-06-14T12:07:42;101872.63;;;31.86;13.95
80644;BME280;70010;60.224;24.712;2023-06-14T12:10:08;101875.86;;;28.54;16.35
80644;BME280;70010;60.224;24.712;2023-06-14T12:12:35;101876.98;;;30.98;14.91
80644;BME280;70010;60.224;24.712;2023-06-14T12:14:58;101871.26;;;33.02;13.39
80644;BME280;70010;60.224;24.712;2023-06-14T12:17:23;101872.60;;;29.74;15.10
80644;BME280;70010;60.224;24.712;2023-06-14T12:19:49;101865.84;;;31.16;14.87
80644;BME280;70010;60.224;24.712;2023-06-14T12:22:14;101868.51;;;30.58;14.82
80644;BME280;70010;60.224;24.712;2023-06-14T12:24:42;101867.06;;;28.72;16.04
80644;BME280;70010;60.224;24.712;2023-06-14T12:27:05;101869.43;;;29.39;15.78
80644;BME280;70010;60.224;24.712;2023-06-14T12:29:30;101862.80;;;28.82;16.40
80644;BME280;70010;60.224;24.712;2023-06-14T12:31:55;101860.12;;;31.22;14.09
80644;BME280;70010;60.224;24.712;2023-06-14T12:34:20;101873.19;;;30.81;14.35
80644;BME280;70010;60.224;24.712;2023-06-14T12:36:46;101862.26;;;28.57;16.25